sensor_id;sensor_type;location;lat;lon;timestamp;temperature;humidity
9537;DHT22;4807;48.024;11.726;2024-02-28T00:02:29;5.00;99.90
9537;DHT22;4807;48.024;11.726;2024-02-28T00:05:37;5.10;99.90
9537;DHT22;4807;48.024;11.726;2024-02-28T00:08:46;5.10;99.90
9537;DHT22;4807;48.024;11.726;2024-02-28T00:11:56;5.30;99.90
9537;DHT22;4807;48.024;11.726;2024-02-28T00:15:05;5.30;99.90
9537;DHT22;4807;48.024;11.726;2024-02-28T00:18:19;5.30;99.90
9537;DHT22;4807;48.024;11.726;2024-02-28T00:21:27;5.30;99.90
9537;DHT22;4807;48.024;11.726;2024-02-28T00:24:36;5.30;99.90
9537;DHT22;4807;48.024;11.726;2024-02-28T00:27:44;5.40;99.90
9537;DHT22;4807;48.024;11.726;2024-02-28T00:30:52;5.40;99.90
9537;DHT22;4807;48.024;11.726;2024-02-28T00:34:02;5.30;99.90
9537;DHT22;4807;48.024;11.726;2024-02-28T00:37:11;5.40;99.90
9537;DHT22;4807;48.024;11.726;2024-02-28T00:40:19;5.50;99.90
9537;DHT22;4807;48.024;11.726;2024-02-28T00:43:27;5.50;99.90
9537;DHT22;4807;48.024;11.726;2024-02-28T00:46:36;5.50;99.90
9537;DHT22;4807;48.024;11.726;2024-02-28T00:49:46;5.40;99.90
9537;DHT22;4807;48.024;11.726;2024-02-28T00:52:54;5.40;99.90
9537;DHT22;4807;48.024;11.726;2024-02-28T00:56:03;5.40;99.90
9537;DHT22;4807;48.024;11.726;2024-02-28T00:59:11;5.40;99.90
9537;DHT22;4807;48.024;11.726;2024-02-28T01:02:20;5.40;99.90
9537;DHT22;4807;48.024;11.726;2024-02-28T01:05:30;5.30;99.90
9537;DHT22;4807;48.024;11.726;2024-02-28T01:08:39;5.30;99.90
9537;DHT22;4807;48.024;11.726;2024-02-28T01:11:48;5.30;99.90
9537;DHT22;4807;48.024;11.726;2024-02-28T01:14:56;5.30;99.90
9537;DHT22;4807;48.024;11.726;2024-02-28T01:18:05;5.20;99.90
9537;DHT22;4807;48.024;11.726;2024-02-28T01:21:15;5.20;99.90
9537;DHT22;4807;48.024;11.726;2024-02-28T01:24:23;5.30;99.90
9537;DHT22;4807;48.024;11.726;2024-02-28T01:27:32;5.30;99.90
9537;DHT22;4807;48.024;11.726;2024-02-28T01:30:40;5.40;99.90
9537;DHT22;4807;48.024;11.726;2024-02-28T01:33:48;5.30;99.90
9537;DHT22;4807;48.024;11.726;2024-02-28T01:36:58;5.30;99.90
9537;DHT22;4807;48.024;11.726;2024-02-28T01:40:08;5.30;99.90
9537;DHT22;4807;48.024;11.726;2024-02-28T01:43:17;5.50;99.90
9537;DHT22;4807;48.024;11.726;2024-02-28T01:46:27;5.60;99.90
9537;DHT22;4807;48.024;11.726;2024-02-28T01:49:36;5.50;99.90
9537;DHT22;4807;48.024;11.726;2024-02-28T01:52:45;5.50;99.90
9537;DHT22;4807;48.024;11.726;2024-02-28T01:55:54;5.40;99.90
9537;DHT22;4807;48.024;11.726;2024-02-28T01:59:04;5.40;99.90
9537;DHT22;4807;48.024;11.726;2024-02-28T02:02:13;5.30;99.90
9537;DHT22;4807;48.024;11.726;2024-02-28T02:05:21;5.30;99.90
9537;DHT22;4807;48.024;11.726;2024-02-28T02:08:31;5.30;99.90
9537;DHT22;4807;48.024;11.726;2024-02-28T02:11:41;5.20;99.90
9537;DHT22;4807;48.024;11.726;2024-02-28T02:14:50;5.30;99.90
9537;DHT22;4807;48.024;11.726;2024-02-28T02:17:58;5.30;99.90
9537;DHT22;4807;48.024;11.726;2024-02-28T02:21:07;5.30;99.90
9537;DHT22;4807;48.024;11.726;2024-02-28T02:24:20;5.40;99.90
9537;DHT22;4807;48.024;11.726;2024-02-28T02:27:28;5.50;99.90
9537;DHT22;4807;48.024;11.726;2024-02-28T02:30:38;5.50;99.90
9537;DHT22;4807;48.024;11.726;2024-02-28T02:33:46;5.40;99.90
9537;DHT22;4807;48.024;11.726;2024-02-28T02:36:55;5.30;99.90
9537;DHT22;4807;48.024;11.726;2024-02-28T02:40:05;5.40;99.90
9537;DHT22;4807;48.024;11.726;2024-02-28T02:43:15;5.40;99.90
9537;DHT22;4807;48.024;11.726;2024-02-28T02:46:23;5.40;99.90
9537;DHT22;4807;48.024;11.726;2024-02-28T02:49:32;5.40;99.90
9537;DHT22;4807;48.024;11.726;2024-02-28T02:52:40;5.40;99.90
9537;DHT22;4807;48.024;11.726;2024-02-28T02:55:49;5.40;99.90
9537;DHT22;4807;48.024;11.726;2024-02-28T02:59:00;5.40;99.90
9537;DHT22;4807;48.024;11.726;2024-02-28T03:02:09;5.70;99.90
9537;DHT22;4807;48.024;11.726;2024-02-28T03:05:17;5.50;99.90
9537;DHT22;4807;48.024;11.726;2024-02-28T03:08:25;5.30;99.90
9537;DHT22;4807;48.024;11.726;2024-02-28T03:11:35;5.30;99.90
9537;DHT22;4807;48.024;11.726;2024-02-28T03:14:43;5.40;99.90
9537;DHT22;4807;48.024;11.726;2024-02-28T03:17:52;5.40;99.90
9537;DHT22;4807;48.024;11.726;2024-02-28T03:21:00;5.40;99.90
9537;DHT22;4807;48.024;11.726;2024-02-28T03:24:08;5.30;99.90
9537;DHT22;4807;48.024;11.726;2024-02-28T03:27:18;5.30;99.90
9537;DHT22;4807;48.024;11.726;2024-02-28T03:30:26;5.30;99.90
9537;DHT22;4807;48.024;11.726;2024-02-28T03:33:35;5.30;99.90
9537;DHT22;4807;48.024;11.726;2024-02-28T03:36:43;5.30;99.90
9537;DHT22;4807;48.024;11.726;2024-02-28T03:39:52;5.30;99.90
9537;DHT22;4807;48.024;11.726;2024-02-28T03:43:01;5.30;99.90
9537;DHT22;4807;48.024;11.726;2024-02-28T03:46:10;5.30;99.90
9537;DHT22;4807;48.024;11.726;2024-02-28T03:49:18;5.40;99.90
9537;DHT22;4807;48.024;11.726;2024-02-28T03:52:27;5.50;99.90
9537;DHT22;4807;48.024;11.726;2024-02-28T03:55:36;5.50;99.90
9537;DHT22;4807;48.024;11.726;2024-02-28T03:58:46;5.50;99.90
9537;DHT22;4807;48.024;11.726;2024-02-28T04:01:55;5.50;99.90
9537;DHT22;4807;48.024;11.726;2024-02-28T04:05:03;5.40;99.90
9537;DHT22;4807;48.024;11.726;2024-02-28T04:08:12;5.40;99.90
9537;DHT22;4807;48.024;11.726;2024-02-28T04:11:20;5.30;99.90
9537;DHT22;4807;48.024;11.726;2024-02-28T04:14:30;5.30;99.90
9537;DHT22;4807;48.024;11.726;2024-02-28T04:17:39;5.30;99.90
9537;DHT22;4807;48.024;11.726;2024-02-28T04:20:48;5.40;99.90
9537;DHT22;4807;48.024;11.726;2024-02-28T04:23:56;5.40;99.90
9537;DHT22;4807;48.024;11.726;2024-02-28T04:27:04;5.60;99.90
9537;DHT22;4807;48.024;11.726;2024-02-28T04:30:14;5.60;99.90
9537;DHT22;4807;48.024;11.726;2024-02-28T04:33:23;5.50;99.90
9537;DHT22;4807;48.024;11.726;2024-02-28T04:36:31;5.60;99.90
9537;DHT22;4807;48.024;11.726;2024-02-28T04:39:39;5.50;99.90
9537;DHT22;4807;48.024;11.726;2024-02-28T04:42:48;5.40;99.90
9537;DHT22;4807;48.024;11.726;2024-02-28T04:45:58;5.40;99.90
9537;DHT22;4807;48.024;11.726;2024-02-28T04:49:08;5.30;99.90
9537;DHT22;4807;48.024;11.726;2024-02-28T04:52:16;5.30;99.90
9537;DHT22;4807;48.024;11.726;2024-02-28T04:55:29;5.30;99.90
9537;DHT22;4807;48.024;11.726;2024-02-28T04:58:38;5.30;99.90
9537;DHT22;4807;48.024;11.726;2024-02-28T05:01:48;5.30;99.90
9537;DHT22;4807;48.024;11.726;2024-02-28T05:04:56;5.30;99.90
9537;DHT22;4807;48.024;11.726;2024-02-28T05:08:06;5.30;99.90
9537;DHT22;4807;48.024;11.726;2024-02-28T05:11:14;5.30;99.90
9537;DHT22;4807;48.024;11.726;2024-02-28T05:14:22;5.20;99.90
9537;DHT22;4807;48.024;11.726;2024-02-28T05:17:32;5.30;99.90
9537;DHT22;4807;48.024;11.726;2024-02-28T05:20:40;5.30;99.90
9537;DHT22;4807;48.024;11.726;2024-02-28T05:23:48;5.30;99.90
9537;DHT22;4807;48.024;11.726;2024-02-28T05:26:57;5.30;99.90
9537;DHT22;4807;48.024;11.726;2024-02-28T05:30:06;5.30;99.90
9537;DHT22;4807;48.024;11.726;2024-02-28T05:33:17;5.20;99.90
9537;DHT22;4807;48.024;11.726;2024-02-28T05:36:27;5.20;99.90
9537;DHT22;4807;48.024;11.726;2024-02-28T05:39:37;5.20;99.90
9537;DHT22;4807;48.024;11.726;2024-02-28T05:42:45;7.00;99.90
9537;DHT22;4807;48.024;11.726;2024-02-28T05:45:54;5.20;99.90
9537;DHT22;4807;48.024;11.726;2024-02-28T05:49:03;5.30;99.90
9537;DHT22;4807;48.024;11.726;2024-02-28T05:52:12;5.30;99.90
9537;DHT22;4807;48.024;11.726;2024-02-28T05:55:20;5.30;99.90
9537;DHT22;4807;48.024;11.726;2024-02-28T05:58:31;5.20;99.90
9537;DHT22;4807;48.024;11.726;2024-02-28T06:01:39;5.20;99.90
9537;DHT22;4807;48.024;11.726;2024-02-28T06:04:49;5.30;99.90
9537;DHT22;4807;48.024;11.726;2024-02-28T06:07:57;5.30;99.90
9537;DHT22;4807;48.024;11.726;2024-02-28T06:11:06;5.20;99.90
9537;DHT22;4807;48.024;11.726;2024-02-28T06:14:15;5.10;99.90
9537;DHT22;4807;48.024;11.726;2024-02-28T06:17:23;5.10;99.90
9537;DHT22;4807;48.024;11.726;2024-02-28T06:20:32;5.10;99.90
9537;DHT22;4807;48.024;11.726;2024-02-28T06:23:41;5.10;99.90
9537;DHT22;4807;48.024;11.726;2024-02-28T06:26:49;5.00;99.90
9537;DHT22;4807;48.024;11.726;2024-02-28T06:29:59;5.00;99.90
9537;DHT22;4807;48.024;11.726;2024-02-28T06:33:07;5.00;99.90
9537;DHT22;4807;48.024;11.726;2024-02-28T06:36:18;4.90;99.90
9537;DHT22;4807;48.024;11.726;2024-02-28T06:39:26;4.90;99.90
9537;DHT22;4807;48.024;11.726;2024-02-28T06:42:34;4.90;99.90
9537;DHT22;4807;48.024;11.726;2024-02-28T06:45:43;4.90;99.90
9537;DHT22;4807;48.024;11.726;2024-02-28T06:48:51;4.80;99.90
9537;DHT22;4807;48.024;11.726;2024-02-28T06:52:01;4.80;99.90
9537;DHT22;4807;48.024;11.726;2024-02-28T06:55:10;4.90;99.90
9537;DHT22;4807;48.024;11.726;2024-02-28T06:58:18;4.90;99.90
9537;DHT22;4807;48.024;11.726;2024-02-28T07:01:26;4.90;99.90
9537;DHT22;4807;48.024;11.726;2024-02-28T07:04:35;4.90;99.90
9537;DHT22;4807;48.024;11.726;2024-02-28T07:07:45;5.00;99.90
9537;DHT22;4807;48.024;11.726;2024-02-28T07:10:53;5.00;99.90
9537;DHT22;4807;48.024;11.726;2024-02-28T07:14:02;5.00;99.90
9537;DHT22;4807;48.024;11.726;2024-02-28T07:17:10;5.00;99.90
9537;DHT22;4807;48.024;11.726;2024-02-28T07:20:18;5.00;99.90
9537;DHT22;4807;48.024;11.726;2024-02-28T07:23:28;6.10;99.90
9537;DHT22;4807;48.024;11.726;2024-02-28T07:26:37;5.10;99.90
9537;DHT22;4807;48.024;11.726;2024-02-28T07:29:47;5.10;99.90
9537;DHT22;4807;48.024;11.726;2024-02-28T07:32:55;5.20;99.90
9537;DHT22;4807;48.024;11.726;2024-02-28T07:36:05;5.20;99.90
9537;DHT22;4807;48.024;11.726;2024-02-28T07:39:14;5.50;99.90
9537;DHT22;4807;48.024;11.726;2024-02-28T07:42:23;5.50;99.90
9537;DHT22;4807;48.024;11.726;2024-02-28T07:45:31;5.40;99.90
9537;DHT22;4807;48.024;11.726;2024-02-28T07:48:39;5.40;99.90
9537;DHT22;4807;48.024;11.726;2024-02-28T07:51:48;5.50;99.90
9537;DHT22;4807;48.024;11.726;2024-02-28T07:54:58;5.60;99.90
9537;DHT22;4807;48.024;11.726;2024-02-28T07:58:06;5.70;99.90
9537;DHT22;4807;48.024;11.726;2024-02-28T08:01:15;5.80;99.90
9537;DHT22;4807;48.024;11.726;2024-02-28T08:04:24;5.80;99.90
9537;DHT22;4807;48.024;11.726;2024-02-28T08:07:32;5.90;99.90
9537;DHT22;4807;48.024;11.726;2024-02-28T08:10:42;5.90;99.90
9537;DHT22;4807;48.024;11.726;2024-02-28T08:13:53;5.90;99.90
9537;DHT22;4807;48.024;11.726;2024-02-28T08:17:01;6.00;99.90
9537;DHT22;4807;48.024;11.726;2024-02-28T08:20:10;6.00;99.90
9537;DHT22;4807;48.024;11.726;2024-02-28T08:23:18;6.00;99.90
9537;DHT22;4807;48.024;11.726;2024-02-28T08:26:28;6.00;99.90
9537;DHT22;4807;48.024;11.726;2024-02-28T08:29:39;5.90;99.90
9537;DHT22;4807;48.024;11.726;2024-02-28T08:32:50;6.00;99.90
9537;DHT22;4807;48.024;11.726;2024-02-28T08:35:58;6.10;99.90
9537;DHT22;4807;48.024;11.726;2024-02-28T08:39:07;6.30;99.90
9537;DHT22;4807;48.024;11.726;2024-02-28T08:42:21;6.30;99.90
9537;DHT22;4807;48.024;11.726;2024-02-28T08:45:32;6.20;99.90
9537;DHT22;4807;48.024;11.726;2024-02-28T08:48:44;6.20;99.90
9537;DHT22;4807;48.024;11.726;2024-02-28T08:51:52;6.30;99.90
9537;DHT22;4807;48.024;11.726;2024-02-28T08:55:00;6.50;99.90
9537;DHT22;4807;48.024;11.726;2024-02-28T08:58:11;6.70;99.90
9537;DHT22;4807;48.024;11.726;2024-02-28T09:01:19;6.90;99.90
9537;DHT22;4807;48.024;11.726;2024-02-28T09:04:29;7.00;99.90
9537;DHT22;4807;48.024;11.726;2024-02-28T09:07:37;7.20;99.90
9537;DHT22;4807;48.024;11.726;2024-02-28T09:10:45;7.10;99.90
9537;DHT22;4807;48.024;11.726;2024-02-28T09:13:55;7.30;99.90
9537;DHT22;4807;48.024;11.726;2024-02-28T09:17:04;7.30;99.90
9537;DHT22;4807;48.024;11.726;2024-02-28T09:20:12;7.30;99.90
9537;DHT22;4807;48.024;11.726;2024-02-28T09:23:22;7.50;99.90
9537;DHT22;4807;48.024;11.726;2024-02-28T09:26:30;7.10;99.90
9537;DHT22;4807;48.024;11.726;2024-02-28T09:29:39;7.80;99.90
9537;DHT22;4807;48.024;11.726;2024-02-28T09:32:48;7.70;99.90
9537;DHT22;4807;48.024;11.726;2024-02-28T09:35:56;7.70;99.90
9537;DHT22;4807;48.024;11.726;2024-02-28T09:39:05;7.60;99.90
9537;DHT22;4807;48.024;11.726;2024-02-28T09:42:14;7.60;99.90
9537;DHT22;4807;48.024;11.726;2024-02-28T09:45:25;7.80;99.90
9537;DHT22;4807;48.024;11.726;2024-02-28T09:48:38;7.90;99.90
9537;DHT22;4807;48.024;11.726;2024-02-28T09:51:49;8.00;99.90
9537;DHT22;4807;48.024;11.726;2024-02-28T09:54:58;8.10;99.90
9537;DHT22;4807;48.024;11.726;2024-02-28T09:58:07;8.00;99.90
9537;DHT22;4807;48.024;11.726;2024-02-28T10:01:19;7.50;99.90
9537;DHT22;4807;48.024;11.726;2024-02-28T10:04:29;7.10;99.90
9537;DHT22;4807;48.024;11.726;2024-02-28T10:07:37;6.80;99.90
9537;DHT22;4807;48.024;11.726;2024-02-28T10:10:46;6.70;99.90
9537;DHT22;4807;48.024;11.726;2024-02-28T10:13:55;6.90;99.90
9537;DHT22;4807;48.024;11.726;2024-02-28T10:17:05;7.10;99.90
9537;DHT22;4807;48.024;11.726;2024-02-28T10:20:14;7.20;99.90
9537;DHT22;4807;48.024;11.726;2024-02-28T10:23:23;7.40;99.90
9537;DHT22;4807;48.024;11.726;2024-02-28T10:26:31;7.70;99.90
9537;DHT22;4807;48.024;11.726;2024-02-28T10:29:45;8.10;99.90
9537;DHT22;4807;48.024;11.726;2024-02-28T10:32:55;8.00;99.90
9537;DHT22;4807;48.024;11.726;2024-02-28T10:36:06;8.00;99.90
9537;DHT22;4807;48.024;11.726;2024-02-28T10:39:15;7.40;99.90
9537;DHT22;4807;48.024;11.726;2024-02-28T10:42:26;7.40;99.90
9537;DHT22;4807;48.024;11.726;2024-02-28T10:45:36;7.30;99.90
9537;DHT22;4807;48.024;11.726;2024-02-28T10:49:06;7.20;99.90
9537;DHT22;4807;48.024;11.726;2024-02-28T10:52:18;7.20;99.90
9537;DHT22;4807;48.024;11.726;2024-02-28T10:55:32;7.20;99.90
9537;DHT22;4807;48.024;11.726;2024-02-28T10:58:49;7.30;99.90
9537;DHT22;4807;48.024;11.726;2024-02-28T11:02:00;7.40;99.90
9537;DHT22;4807;48.024;11.726;2024-02-28T11:05:10;7.60;99.90
9537;DHT22;4807;48.024;11.726;2024-02-28T11:08:23;7.50;99.90
9537;DHT22;4807;48.024;11.726;2024-02-28T11:11:33;7.40;99.90
9537;DHT22;4807;48.024;11.726;2024-02-28T11:14:41;7.50;99.90
9537;DHT22;4807;48.024;11.726;2024-02-28T11:17:49;7.60;99.90
9537;DHT22;4807;48.024;11.726;2024-02-28T11:20:59;7.80;99.90
9537;DHT22;4807;48.024;11.726;2024-02-28T11:24:13;8.10;99.90
9537;DHT22;4807;48.024;11.726;2024-02-28T11:27:21;8.00;99.90
9537;DHT22;4807;48.024;11.726;2024-02-28T11:30:30;8.00;99.90
9537;DHT22;4807;48.024;11.726;2024-02-28T11:33:39;8.10;99.90
9537;DHT22;4807;48.024;11.726;2024-02-28T11:36:50;8.30;99.90
9537;DHT22;4807;48.024;11.726;2024-02-28T11:40:00;8.40;99.90
9537;DHT22;4807;48.024;11.726;2024-02-28T11:43:10;8.10;99.90
9537;DHT22;4807;48.024;11.726;2024-02-28T11:46:18;7.70;99.90
9537;DHT22;4807;48.024;11.726;2024-02-28T11:49:28;7.50;99.90
9537;DHT22;4807;48.024;11.726;2024-02-28T11:52:39;7.50;99.90
9537;DHT22;4807;48.024;11.726;2024-02-28T11:55:47;7.50;99.90
9537;DHT22;4807;48.024;11.726;2024-02-28T11:58:58;7.40;99.90
9537;DHT22;4807;48.024;11.726;2024-02-28T12:02:11;7.50;99.90
9537;DHT22;4807;48.024;11.726;2024-02-28T12:05:20;7.60;99.90
9537;DHT22;4807;48.024;11.726;2024-02-28T12:08:30;7.70;99.90
9537;DHT22;4807;48.024;11.726;2024-02-28T12:11:38;7.90;99.90
9537;DHT22;4807;48.024;11.726;2024-02-28T12:14:47;8.00;99.90
9537;DHT22;4807;48.024;11.726;2024-02-28T12:17:55;7.90;99.90
9537;DHT22;4807;48.024;11.726;2024-02-28T12:21:05;8.00;99.90
9537;DHT22;4807;48.024;11.726;2024-02-28T12:24:14;8.00;99.90
9537;DHT22;4807;48.024;11.726;2024-02-28T12:27:23;8.00;99.90
9537;DHT22;4807;48.024;11.726;2024-02-28T12:30:31;7.90;99.90
9537;DHT22;4807;48.024;11.726;2024-02-28T12:33:47;7.90;99.90
9537;DHT22;4807;48.024;11.726;2024-02-28T12:36:55;7.80;99.90
9537;DHT22;4807;48.024;11.726;2024-02-28T12:40:07;7.70;99.90
9537;DHT22;4807;48.024;11.726;2024-02-28T12:43:15;7.70;99.90
9537;DHT22;4807;48.024;11.726;2024-02-28T12:46:24;7.60;99.90
9537;DHT22;4807;48.024;11.726;2024-02-28T12:49:32;7.60;99.90
9537;DHT22;4807;48.024;11.726;2024-02-28T12:52:40;7.70;99.90
9537;DHT22;4807;48.024;11.726;2024-02-28T12:55:50;7.80;99.90
9537;DHT22;4807;48.024;11.726;2024-02-28T12:58:58;7.70;99.90
9537;DHT22;4807;48.024;11.726;2024-02-28T13:02:06;7.70;99.90
9537;DHT22;4807;48.024;11.726;2024-02-28T13:05:16;7.70;99.90
9537;DHT22;4807;48.024;11.726;2024-02-28T13:08:24;7.60;99.90
9537;DHT22;4807;48.024;11.726;2024-02-28T13:11:34;7.50;99.90
9537;DHT22;4807;48.024;11.726;2024-02-28T13:14:42;7.40;99.90
9537;DHT22;4807;48.024;11.726;2024-02-28T13:17:50;7.30;99.90
9537;DHT22;4807;48.024;11.726;2024-02-28T13:20:59;7.30;99.90
9537;DHT22;4807;48.024;11.726;2024-02-28T13:24:07;7.30;99.90
9537;DHT22;4807;48.024;11.726;2024-02-28T13:27:17;7.20;99.90
9537;DHT22;4807;48.024;11.726;2024-02-28T13:30:26;7.30;99.90
9537;DHT22;4807;48.024;11.726;2024-02-28T13:33:34;7.30;99.90
9537;DHT22;4807;48.024;11.726;2024-02-28T13:36:50;7.30;99.90
9537;DHT22;4807;48.024;11.726;2024-02-28T13:39:58;7.30;99.90
9537;DHT22;4807;48.024;11.726;2024-02-28T13:43:09;7.20;99.90
9537;DHT22;4807;48.024;11.726;2024-02-28T13:46:17;7.10;99.90
9537;DHT22;4807;48.024;11.726;2024-02-28T13:49:26;7.10;99.90
9537;DHT22;4807;48.024;11.726;2024-02-28T13:52:34;7.10;99.90
9537;DHT22;4807;48.024;11.726;2024-02-28T13:55:43;7.20;99.90
9537;DHT22;4807;48.024;11.726;2024-02-28T13:58:53;7.20;99.90
9537;DHT22;4807;48.024;11.726;2024-02-28T14:02:03;7.40;99.90
9537;DHT22;4807;48.024;11.726;2024-02-28T14:05:12;7.40;99.90
9537;DHT22;4807;48.024;11.726;2024-02-28T14:08:20;7.60;99.90
9537;DHT22;4807;48.024;11.726;2024-02-28T14:11:30;7.80;99.90
9537;DHT22;4807;48.024;11.726;2024-02-28T14:14:40;7.90;99.90
9537;DHT22;4807;48.024;11.726;2024-02-28T14:17:48;8.00;99.90
9537;DHT22;4807;48.024;11.726;2024-02-28T14:20:56;8.10;99.90
9537;DHT22;4807;48.024;11.726;2024-02-28T14:24:05;8.00;99.90
9537;DHT22;4807;48.024;11.726;2024-02-28T14:27:14;7.90;99.90
9537;DHT22;4807;48.024;11.726;2024-02-28T14:30:24;7.70;99.90
9537;DHT22;4807;48.024;11.726;2024-02-28T14:33:32;7.70;99.90
9537;DHT22;4807;48.024;11.726;2024-02-28T14:36:41;7.50;99.90
9537;DHT22;4807;48.024;11.726;2024-02-28T14:39:49;7.40;99.90
9537;DHT22;4807;48.024;11.726;2024-02-28T14:42:58;7.20;99.90
9537;DHT22;4807;48.024;11.726;2024-02-28T14:46:09;7.10;99.90
9537;DHT22;4807;48.024;11.726;2024-02-28T14:49:18;7.00;99.90
9537;DHT22;4807;48.024;11.726;2024-02-28T14:52:26;7.00;99.90
9537;DHT22;4807;48.024;11.726;2024-02-28T14:55:35;6.90;99.90
9537;DHT22;4807;48.024;11.726;2024-02-28T14:58:43;6.90;99.90
9537;DHT22;4807;48.024;11.726;2024-02-28T15:01:53;6.90;99.90
9537;DHT22;4807;48.024;11.726;2024-02-28T15:05:01;6.90;99.90
9537;DHT22;4807;48.024;11.726;2024-02-28T15:08:13;6.90;99.90
9537;DHT22;4807;48.024;11.726;2024-02-28T15:11:22;6.90;99.90
9537;DHT22;4807;48.024;11.726;2024-02-28T15:14:31;6.90;99.90
9537;DHT22;4807;48.024;11.726;2024-02-28T15:17:41;6.80;99.90
9537;DHT22;4807;48.024;11.726;2024-02-28T15:20:49;6.80;99.90
9537;DHT22;4807;48.024;11.726;2024-02-28T15:24:02;6.80;99.90
9537;DHT22;4807;48.024;11.726;2024-02-28T15:27:11;6.90;99.90
9537;DHT22;4807;48.024;11.726;2024-02-28T15:30:19;6.80;99.90
9537;DHT22;4807;48.024;11.726;2024-02-28T15:33:29;6.80;99.90
9537;DHT22;4807;48.024;11.726;2024-02-28T15:36:38;6.70;99.90
9537;DHT22;4807;48.024;11.726;2024-02-28T15:39:46;6.70;99.90
9537;DHT22;4807;48.024;11.726;2024-02-28T15:42:55;6.60;99.90
9537;DHT22;4807;48.024;11.726;2024-02-28T15:46:05;6.70;99.90
9537;DHT22;4807;48.024;11.726;2024-02-28T15:49:15;6.70;99.90
9537;DHT22;4807;48.024;11.726;2024-02-28T15:52:34;6.70;99.90
9537;DHT22;4807;48.024;11.726;2024-02-28T15:55:42;6.70;99.90
9537;DHT22;4807;48.024;11.726;2024-02-28T15:58:51;6.80;99.90
9537;DHT22;4807;48.024;11.726;2024-02-28T16:01:59;6.90;99.90
9537;DHT22;4807;48.024;11.726;2024-02-28T16:05:09;6.70;99.90
9537;DHT22;4807;48.024;11.726;2024-02-28T16:08:17;6.70;99.90
9537;DHT22;4807;48.024;11.726;2024-02-28T16:11:26;6.60;99.90
9537;DHT22;4807;48.024;11.726;2024-02-28T16:14:35;6.60;99.90
9537;DHT22;4807;48.024;11.726;2024-02-28T16:17:43;6.60;99.90
9537;DHT22;4807;48.024;11.726;2024-02-28T16:20:52;6.60;99.90
9537;DHT22;4807;48.024;11.726;2024-02-28T16:24:01;6.50;99.90
9537;DHT22;4807;48.024;11.726;2024-02-28T16:27:09;6.50;99.90
9537;DHT22;4807;48.024;11.726;2024-02-28T16:30:17;6.50;99.90
9537;DHT22;4807;48.024;11.726;2024-02-28T16:33:25;6.40;99.90
9537;DHT22;4807;48.024;11.726;2024-02-28T16:36:36;6.40;99.90
9537;DHT22;4807;48.024;11.726;2024-02-28T16:39:45;6.40;99.90
9537;DHT22;4807;48.024;11.726;2024-02-28T16:42:53;6.40;99.90
9537;DHT22;4807;48.024;11.726;2024-02-28T16:46:01;6.30;99.90
9537;DHT22;4807;48.024;11.726;2024-02-28T16:49:10;6.30;99.90
9537;DHT22;4807;48.024;11.726;2024-02-28T16:52:20;6.30;99.90
9537;DHT22;4807;48.024;11.726;2024-02-28T16:55:28;6.20;99.90
9537;DHT22;4807;48.024;11.726;2024-02-28T16:58:37;6.10;99.90
9537;DHT22;4807;48.024;11.726;2024-02-28T17:01:47;6.10;99.90
9537;DHT22;4807;48.024;11.726;2024-02-28T17:04:56;6.10;99.90
9537;DHT22;4807;48.024;11.726;2024-02-28T17:08:06;6.00;99.90
9537;DHT22;4807;48.024;11.726;2024-02-28T17:11:15;6.00;99.90
9537;DHT22;4807;48.024;11.726;2024-02-28T17:14:25;6.00;99.90
9537;DHT22;4807;48.024;11.726;2024-02-28T17:17:33;6.00;99.90
9537;DHT22;4807;48.024;11.726;2024-02-28T17:20:42;6.00;99.90
9537;DHT22;4807;48.024;11.726;2024-02-28T17:23:51;6.00;99.90
9537;DHT22;4807;48.024;11.726;2024-02-28T17:27:00;6.00;99.90
9537;DHT22;4807;48.024;11.726;2024-02-28T17:30:09;6.00;99.90
9537;DHT22;4807;48.024;11.726;2024-02-28T17:33:17;5.90;99.90
9537;DHT22;4807;48.024;11.726;2024-02-28T17:36:27;5.80;99.90
9537;DHT22;4807;48.024;11.726;2024-02-28T17:39:38;5.90;99.90
9537;DHT22;4807;48.024;11.726;2024-02-28T17:42:46;6.00;99.90
9537;DHT22;4807;48.024;11.726;2024-02-28T17:45:56;5.90;99.90
9537;DHT22;4807;48.024;11.726;2024-02-28T17:49:08;5.90;99.90
9537;DHT22;4807;48.024;11.726;2024-02-28T17:52:16;5.90;99.90
9537;DHT22;4807;48.024;11.726;2024-02-28T17:55:29;7.60;99.90
9537;DHT22;4807;48.024;11.726;2024-02-28T17:58:37;5.80;99.90
9537;DHT22;4807;48.024;11.726;2024-02-28T18:01:45;5.90;99.90
9537;DHT22;4807;48.024;11.726;2024-02-28T18:04:54;5.80;99.90
9537;DHT22;4807;48.024;11.726;2024-02-28T18:08:02;5.90;99.90
9537;DHT22;4807;48.024;11.726;2024-02-28T18:11:12;5.90;99.90
9537;DHT22;4807;48.024;11.726;2024-02-28T18:14:20;5.90;99.90
9537;DHT22;4807;48.024;11.726;2024-02-28T18:17:29;5.90;99.90
9537;DHT22;4807;48.024;11.726;2024-02-28T18:20:38;5.90;99.90
9537;DHT22;4807;48.024;11.726;2024-02-28T18:23:46;5.80;99.90
9537;DHT22;4807;48.024;11.726;2024-02-28T18:26:56;5.70;99.90
9537;DHT22;4807;48.024;11.726;2024-02-28T18:30:05;5.70;99.90
9537;DHT22;4807;48.024;11.726;2024-02-28T18:33:14;5.70;99.90
9537;DHT22;4807;48.024;11.726;2024-02-28T18:36:24;5.60;99.90
9537;DHT22;4807;48.024;11.726;2024-02-28T18:39:35;5.50;99.90
9537;DHT22;4807;48.024;11.726;2024-02-28T18:42:47;5.40;99.90
9537;DHT22;4807;48.024;11.726;2024-02-28T18:45:56;5.30;99.90
9537;DHT22;4807;48.024;11.726;2024-02-28T18:49:05;5.20;99.90
9537;DHT22;4807;48.024;11.726;2024-02-28T18:52:14;5.20;99.90
9537;DHT22;4807;48.024;11.726;2024-02-28T18:55:23;5.10;99.90
9537;DHT22;4807;48.024;11.726;2024-02-28T18:58:33;5.10;99.90
9537;DHT22;4807;48.024;11.726;2024-02-28T19:01:43;5.10;99.90
9537;DHT22;4807;48.024;11.726;2024-02-28T19:04:53;5.10;99.90
9537;DHT22;4807;48.024;11.726;2024-02-28T19:08:02;5.20;99.90
9537;DHT22;4807;48.024;11.726;2024-02-28T19:11:10;5.30;99.90
9537;DHT22;4807;48.024;11.726;2024-02-28T19:14:20;5.30;99.90
9537;DHT22;4807;48.024;11.726;2024-02-28T19:17:29;5.30;99.90
9537;DHT22;4807;48.024;11.726;2024-02-28T19:20:37;5.30;99.90
9537;DHT22;4807;48.024;11.726;2024-02-28T19:23:46;5.20;99.90
9537;DHT22;4807;48.024;11.726;2024-02-28T19:26:54;5.20;99.90
9537;DHT22;4807;48.024;11.726;2024-02-28T19:30:06;5.20;99.90
9537;DHT22;4807;48.024;11.726;2024-02-28T19:33:16;5.20;99.90
9537;DHT22;4807;48.024;11.726;2024-02-28T19:36:25;5.20;99.90
9537;DHT22;4807;48.024;11.726;2024-02-28T19:39:33;5.20;99.90
9537;DHT22;4807;48.024;11.726;2024-02-28T19:42:42;5.20;99.90
9537;DHT22;4807;48.024;11.726;2024-02-28T19:45:52;5.10;99.90
9537;DHT22;4807;48.024;11.726;2024-02-28T19:49:01;5.10;99.90
9537;DHT22;4807;48.024;11.726;2024-02-28T19:52:10;5.10;99.90
9537;DHT22;4807;48.024;11.726;2024-02-28T19:55:19;5.10;99.90
9537;DHT22;4807;48.024;11.726;2024-02-28T19:58:27;5.10;99.90
9537;DHT22;4807;48.024;11.726;2024-02-28T20:01:37;5.20;99.90
9537;DHT22;4807;48.024;11.726;2024-02-28T20:04:45;5.20;99.90
9537;DHT22;4807;48.024;11.726;2024-02-28T20:07:54;5.20;99.90
9537;DHT22;4807;48.024;11.726;2024-02-28T20:11:03;5.20;99.90
9537;DHT22;4807;48.024;11.726;2024-02-28T20:14:12;4.80;99.90
9537;DHT22;4807;48.024;11.726;2024-02-28T20:17:22;5.20;99.90
9537;DHT22;4807;48.024;11.726;2024-02-28T20:20:30;5.20;99.90
9537;DHT22;4807;48.024;11.726;2024-02-28T20:23:39;5.20;99.90
9537;DHT22;4807;48.024;11.726;2024-02-28T20:26:48;5.20;99.90
9537;DHT22;4807;48.024;11.726;2024-02-28T20:29:56;5.10;99.90
9537;DHT22;4807;48.024;11.726;2024-02-28T20:33:09;5.10;99.90
9537;DHT22;4807;48.024;11.726;2024-02-28T20:36:18;5.20;99.90